Time;durP1;ratioP1;P1;durP2;ratioP2;P2;SDS_P1;SDS_P2;PMS_P1;PMS_P2;Temp;Humidity;BMP_temperature;BMP_pressure;BME280_temperature;BME280_humidity;BME280_pressure;Samples;Min_cycle;Max_cycle;Signal;HPM_P1;HPM_P2
2022/01/24 00:00:51;;;;;;;18.67;9.70;;;1.90;94.00;;;;;;5083475;28;20032;-77
2022/01/24 00:03:17;;;;;;;14.27;6.85;;;1.90;94.10;;;;;;5088163;28;20028;-77
2022/01/24 00:05:42;;;;;;;16.48;8.25;;;1.80;93.70;;;;;;5089481;28;20036;-77
2022/01/24 00:08:08;;;;;;;21.10;9.95;;;2.10;93.50;;;;;;5091227;28;20024;-77
2022/01/24 00:10:37;;;;;;;18.27;9.00;;;2.20;93.90;;;;;;5091183;28;20152;-76
2022/01/24 00:16:00;;;;;;;18.27;8.13;;;2.30;93.30;;;;;;5088174;28;20092;-77
2022/01/24 00:18:30;;;;;;;20.08;9.25;;;2.10;93.20;;;;;;5063556;28;20043;-76
2022/01/24 00:27:08;;;;;;;16.48;8.15;;;2.00;93.30;;;;;;5025922;28;20499;-77
2022/01/24 00:29:27;;;;;;;16.38;7.38;;;2.00;93.80;;;;;;5085830;28;20490;-76
2022/01/24 00:31:55;;;;;;;14.20;8.65;;;2.00;93.70;;;;;;5090012;28;20099;-76
2022/01/24 00:34:23;;;;;;;14.65;7.90;;;1.90;93.70;;;;;;5090203;28;20024;-76
2022/01/24 00:36:51;;;;;;;16.48;8.07;;;1.80;93.60;;;;;;5090323;28;20077;-76
2022/01/24 00:39:17;;;;;;;17.70;9.60;;;1.70;93.70;;;;;;5071515;28;20111;-76
2022/01/24 00:41:53;;;;;;;16.70;9.18;;;1.70;94.30;;;;;;5087747;28;20462;-76
2022/01/24 00:46:56;;;;;;;21.92;10.52;;;1.60;94.50;;;;;;5089615;28;20097;-76
2022/01/24 00:49:43;;;;;;;19.85;10.40;;;1.50;94.70;;;;;;5090099;28;20119;-76
2022/01/24 00:54:54;;;;;;;15.47;6.70;;;1.50;94.60;;;;;;5089907;28;20047;-77
2022/01/24 00:57:21;;;;;;;18.35;6.20;;;1.60;94.10;;;;;;5089371;28;20375;-76
2022/01/24 00:59:48;;;;;;;15.73;5.20;;;1.70;93.40;;;;;;5089144;28;20036;-77
2022/01/24 01:02:14;;;;;;;8.88;5.20;;;1.80;93.10;;;;;;5089554;28;20386;-76
2022/01/24 01:07:29;;;;;;;9.98;5.15;;;1.90;92.80;;;;;;5084264;28;20119;-76
2022/01/24 01:18:15;;;;;;;17.23;9.48;;;1.70;93.90;;;;;;5090159;28;20067;-75
2022/01/24 01:23:30;;;;;;;17.25;8.70;;;1.50;94.40;;;;;;5088594;28;20032;-76
2022/01/24 01:25:59;;;;;;;18.10;9.73;;;1.70;94.30;;;;;;5087625;28;20382;-76
2022/01/24 01:28:26;;;;;;;15.52;8.00;;;1.60;94.20;;;;;;5089676;28;20028;-76
2022/01/24 01:30:56;;;;;;;16.20;7.97;;;1.60;94.20;;;;;;5089411;28;20126;-76
2022/01/24 01:33:39;;;;;;;11.27;5.90;;;1.70;94.00;;;;;;5089597;28;20055;-76
2022/01/24 01:36:13;;;;;;;11.40;6.10;;;1.70;93.30;;;;;;5086489;28;20028;-76
2022/01/24 01:55:38;;;;;;;18.63;10.40;;;1.70;94.10;;;;;;5087574;28;20553;-76
2022/01/24 01:58:11;;;;;;;18.27;9.60;;;1.80;94.30;;;;;;5084825;28;20024;-76
2022/01/24 02:00:40;;;;;;;18.35;9.02;;;1.70;94.00;;;;;;5088603;28;20040;-76
2022/01/24 02:03:06;;;;;;;16.75;10.05;;;1.50;94.00;;;;;;5088093;28;20028;-76
2022/01/24 02:05:32;;;;;;;18.33;9.63;;;1.40;94.70;;;;;;5084784;28;20042;-76
2022/01/24 02:07:58;;;;;;;19.48;9.32;;;1.40;95.00;;;;;;5085583;28;20107;-76
2022/01/24 02:10:25;;;;;;;14.38;7.90;;;1.50;94.70;;;;;;5087794;28;20466;-76
2022/01/24 02:12:53;;;;;;;15.65;8.27;;;1.50;94.30;;;;;;5087471;28;20024;-76
2022/01/24 02:15:35;;;;;;;15.02;7.45;;;1.40;94.30;;;;;;5089290;28;20020;-76
2022/01/24 02:18:09;;;;;;;18.23;8.73;;;1.40;94.20;;;;;;5086423;28;20036;-75
2022/01/24 02:21:07;;;;;;;20.60;8.73;;;1.30;94.60;;;;;;5084392;28;20077;-76
2022/01/24 02:26:01;;;;;;;14.68;7.80;;;1.20;95.20;;;;;;5085724;28;20044;-76
2022/01/24 02:28:33;;;;;;;14.93;7.75;;;1.20;95.20;;;;;;5087047;28;20024;-76
2022/01/24 02:33:25;;;;;;;14.35;8.15;;;1.10;94.50;;;;;;5086959;28;20035;-76
2022/01/24 02:35:51;;;;;;;19.30;9.50;;;1.20;94.80;;;;;;5086435;28;20047;-76
2022/01/24 02:38:31;;;;;;;16.80;9.13;;;1.30;95.20;;;;;;5087316;28;20024;-76
2022/01/24 02:49:11;;;;;;;12.57;6.75;;;1.60;93.90;;;;;;5088230;28;20043;-76
2022/01/24 02:54:06;;;;;;;13.07;6.47;;;1.50;93.70;;;;;;5087370;28;20444;-77
2022/01/24 02:56:32;;;;;;;12.27;6.13;;;1.30;93.70;;;;;;5081344;28;20032;-76
2022/01/24 02:58:58;;;;;;;16.60;6.72;;;1.30;93.90;;;;;;5085322;28;20089;-76
2022/01/24 03:01:23;;;;;;;13.32;5.50;;;1.30;94.10;;;;;;5085901;28;20368;-76
2022/01/24 03:03:49;;;;;;;14.32;6.50;;;1.20;93.90;;;;;;5088996;28;20504;-76
2022/01/24 03:06:15;;;;;;;15.13;6.13;;;1.40;94.00;;;;;;5086405;28;20043;-76
2022/01/24 03:08:41;;;;;;;14.15;6.93;;;1.30;93.80;;;;;;5086833;28;20104;-76
2022/01/24 03:11:08;;;;;;;13.98;6.85;;;1.30;93.90;;;;;;5066473;28;20484;-76
2022/01/24 03:13:33;;;;;;;17.23;7.57;;;1.20;93.90;;;;;;5087439;28;20032;-76
2022/01/24 03:16:02;;;;;;;16.63;8.60;;;1.20;94.40;;;;;;5087536;28;20031;-76
2022/01/24 03:18:28;;;;;;;14.88;8.50;;;1.10;94.70;;;;;;5087642;28;20028;-76
2022/01/24 03:20:54;;;;;;;13.07;7.13;;;1.10;94.80;;;;;;5086504;28;20428;-76
2022/01/24 03:23:22;;;;;;;14.57;6.78;;;1.00;94.70;;;;;;5090214;28;20024;-77
2022/01/24 03:25:48;;;;;;;18.83;7.65;;;0.90;94.70;;;;;;5091683;28;20036;-76
2022/01/24 03:28:14;;;;;;;12.45;7.10;;;1.10;94.80;;;;;;5092357;28;20028;-76
2022/01/24 03:30:41;;;;;;;13.43;6.13;;;1.10;94.20;;;;;;5092107;28;20498;-76
2022/01/24 03:33:08;;;;;;;13.02;6.22;;;1.20;94.20;;;;;;5091757;28;20402;-76
2022/01/24 03:35:34;;;;;;;13.25;5.90;;;1.10;94.20;;;;;;5091566;28;20044;-76
2022/01/24 03:38:02;;;;;;;10.15;4.82;;;1.00;94.10;;;;;;5092038;28;20074;-76
2022/01/24 03:40:27;;;;;;;8.68;4.10;;;1.00;93.70;;;;;;5092065;28;20473;-76
2022/01/24 03:42:53;;;;;;;7.40;3.88;;;1.10;93.30;;;;;;5092141;28;20149;-76
2022/01/24 03:45:37;;;;;;;10.38;5.15;;;1.30;93.00;;;;;;5091898;28;20063;-76
2022/01/24 03:48:36;;;;;;;12.75;5.95;;;1.40;92.70;;;;;;5091892;28;20032;-76
2022/01/24 03:51:02;;;;;;;12.73;5.22;;;1.40;93.20;;;;;;5072798;28;20427;-76
2022/01/24 03:53:28;;;;;;;12.43;5.90;;;1.20;93.80;;;;;;5092676;28;20137;-76
2022/01/24 03:55:53;;;;;;;11.38;6.90;;;1.20;93.70;;;;;;5091369;28;20501;-76
2022/01/24 03:58:19;;;;;;;11.68;6.75;;;1.20;94.00;;;;;;5092117;28;20024;-76
2022/01/24 04:00:45;;;;;;;12.98;7.18;;;1.10;94.30;;;;;;5091070;28;20385;-75
2022/01/24 04:03:11;;;;;;;14.18;6.72;;;0.90;94.50;;;;;;5085156;28;20529;-75
2022/01/24 04:05:37;;;;;;;12.25;6.28;;;0.90;94.60;;;;;;5084199;28;20040;-75
2022/01/24 04:08:03;;;;;;;12.35;6.35;;;0.90;94.50;;;;;;5083971;28;20043;-75
2022/01/24 04:10:29;;;;;;;11.20;5.28;;;0.90;94.50;;;;;;5083162;28;20038;-74
2022/01/24 04:12:54;;;;;;;14.13;5.78;;;0.80;94.40;;;;;;5083358;28;20028;-75
2022/01/24 04:15:45;;;;;;;11.15;5.85;;;0.60;94.30;;;;;;5084550;28;20089;-74
2022/01/24 04:18:30;;;;;;;13.63;7.70;;;0.50;94.40;;;;;;5083605;28;20032;-74
2022/01/24 04:23:43;;;;;;;10.93;5.13;;;0.50;95.00;;;;;;5087573;28;20047;-74
2022/01/24 04:26:09;;;;;;;9.65;4.75;;;0.50;94.70;;;;;;5086284;28;20039;-74
2022/01/24 04:28:34;;;;;;;9.25;4.43;;;0.70;94.50;;;;;;5068678;28;20036;-75
2022/01/24 04:31:00;;;;;;;13.35;5.47;;;0.80;93.80;;;;;;5086030;28;20060;-74
2022/01/24 04:33:26;;;;;;;9.95;5.05;;;0.90;94.20;;;;;;5086912;28;20028;-74
2022/01/24 04:35:51;;;;;;;10.40;4.75;;;0.80;94.10;;;;;;5084873;28;20085;-75
2022/01/24 04:38:17;;;;;;;13.73;4.88;;;0.80;93.90;;;;;;5086634;28;20402;-74
2022/01/24 04:40:43;;;;;;;12.50;5.72;;;0.90;93.90;;;;;;5085202;28;20120;-74
2022/01/24 04:43:36;;;;;;;11.05;5.95;;;0.90;94.30;;;;;;5086871;28;20032;-74
2022/01/24 04:51:28;;;;;;;7.07;3.38;;;0.60;94.80;;;;;;5082057;28;20074;-74
2022/01/24 04:56:39;;;;;;;9.80;4.70;;;0.90;93.60;;;;;;5085726;28;20036;-74
2022/01/24 04:59:06;;;;;;;9.38;4.45;;;1.00;93.40;;;;;;5080203;28;20486;-74
2022/01/24 05:01:32;;;;;;;8.02;4.13;;;1.20;93.00;;;;;;5064860;28;20127;-74
2022/01/24 05:03:57;;;;;;;7.72;4.05;;;0.90;93.10;;;;;;5083211;28;20112;-74
2022/01/24 05:06:23;;;;;;;11.32;5.40;;;0.80;93.30;;;;;;5081071;28;20560;-74
2022/01/24 05:08:49;;;;;;;13.75;4.72;;;0.70;93.80;;;;;;5083268;28;20031;-74
2022/01/24 05:11:20;;;;;;;12.25;5.97;;;0.80;93.80;;;;;;5063031;28;20060;-74
2022/01/24 05:24:35;;;;;;;10.23;3.83;;;0.80;93.50;;;;;;5082346;28;20549;-75
2022/01/24 05:27:01;;;;;;;10.63;4.85;;;0.90;93.30;;;;;;5065458;28;20032;-75
2022/01/24 05:29:27;;;;;;;12.15;5.35;;;0.80;93.40;;;;;;5082465;28;20390;-75
2022/01/24 05:31:55;;;;;;;10.60;4.28;;;1.10;93.50;;;;;;5082588;28;20668;-75
2022/01/24 05:34:21;;;;;;;7.80;4.15;;;0.90;93.10;;;;;;5081166;28;20036;-74
2022/01/24 05:36:46;;;;;;;11.35;4.43;;;0.90;93.10;;;;;;5082165;28;20213;-74
2022/01/24 05:39:12;;;;;;;6.43;3.70;;;1.00;92.90;;;;;;5083093;28;20036;-74
2022/01/24 05:41:38;;;;;;;9.20;4.00;;;0.90;92.90;;;;;;5081228;28;20053;-74
2022/01/24 05:44:05;;;;;;;9.07;3.58;;;0.80;93.20;;;;;;5082134;28;20153;-74
2022/01/24 05:46:31;;;;;;;7.90;3.53;;;0.70;93.20;;;;;;5064796;28;20047;-74
2022/01/24 05:48:57;;;;;;;10.15;4.30;;;0.80;92.80;;;;;;5083005;28;20028;-74
2022/01/24 05:51:24;;;;;;;7.55;4.00;;;0.80;92.80;;;;;;5081931;28;20028;-74
2022/01/24 05:53:50;;;;;;;9.57;4.65;;;0.60;93.10;;;;;;5082195;28;20028;-74
2022/01/24 05:56:17;;;;;;;10.82;5.50;;;0.70;93.40;;;;;;5082701;28;20858;-74
2022/01/24 05:58:43;;;;;;;11.25;6.43;;;0.60;93.70;;;;;;5083073;28;20059;-74
2022/01/24 06:01:08;;;;;;;9.32;4.43;;;0.60;93.90;;;;;;5080637;28;20556;-75
2022/01/24 06:03:34;;;;;;;8.18;3.85;;;0.60;93.50;;;;;;5082884;28;20090;-74
2022/01/24 06:06:00;;;;;;;9.57;4.57;;;0.40;93.50;;;;;;5081189;28;20035;-74
2022/01/24 06:08:25;;;;;;;7.28;3.67;;;0.50;93.60;;;;;;5082869;28;20031;-74
2022/01/24 06:10:53;;;;;;;8.80;4.30;;;0.60;93.50;;;;;;5062721;28;20133;-74
2022/01/24 06:13:19;;;;;;;8.48;3.80;;;0.50;93.10;;;;;;5082560;28;20031;-74
2022/01/24 06:15:45;;;;;;;9.40;4.47;;;0.40;93.40;;;;;;5081796;28;20020;-74
2022/01/24 06:18:11;;;;;;;7.85;4.28;;;0.60;93.40;;;;;;5081884;28;20028;-74
2022/01/24 06:20:37;;;;;;;8.85;4.30;;;0.70;93.40;;;;;;5074061;28;20037;-74
2022/01/24 06:23:03;;;;;;;10.25;4.15;;;0.80;93.40;;;;;;5079900;28;20035;-74
2022/01/24 06:25:29;;;;;;;10.02;4.30;;;0.80;93.30;;;;;;5081782;28;20077;-74
2022/01/24 06:27:56;;;;;;;9.73;4.40;;;0.80;93.50;;;;;;5081698;28;20128;-75
2022/01/24 06:30:22;;;;;;;9.00;4.95;;;0.80;93.40;;;;;;5078102;28;20071;-77
2022/01/24 06:32:48;;;;;;;7.75;4.38;;;0.70;93.40;;;;;;5063714;28;20039;-76
2022/01/24 06:35:15;;;;;;;8.38;4.35;;;0.80;93.20;;;;;;5087764;28;20431;-74
2022/01/24 06:37:41;;;;;;;10.25;4.70;;;1.00;93.90;;;;;;5082555;28;20055;-76
2022/01/24 06:40:10;;;;;;;12.52;5.75;;;1.00;93.00;;;;;;5069429;28;20630;-74
2022/01/24 06:42:36;;;;;;;7.53;4.78;;;0.90;93.70;;;;;;5080173;28;20024;-73
2022/01/24 06:45:02;;;;;;;7.68;4.40;;;0.90;92.90;;;;;;5081822;28;20494;-73
2022/01/24 06:47:28;;;;;;;8.20;4.20;;;1.00;92.60;;;;;;5082566;28;20064;-74
2022/01/24 06:49:53;;;;;;;10.55;4.53;;;1.00;92.60;;;;;;5082255;28;20063;-73
2022/01/24 06:52:20;;;;;;;8.75;4.22;;;0.80;93.00;;;;;;5082342;28;20067;-73
2022/01/24 06:54:47;;;;;;;8.70;4.38;;;0.70;93.30;;;;;;5082618;28;20478;-73
2022/01/24 06:57:13;;;;;;;6.85;3.67;;;1.00;92.90;;;;;;5082432;28;20028;-73
2022/01/24 06:59:41;;;;;;;10.10;4.97;;;0.80;92.70;;;;;;5086434;28;20031;-73
2022/01/24 07:02:08;;;;;;;12.13;4.93;;;1.10;92.60;;;;;;5085834;28;20052;-74
2022/01/24 07:04:34;;;;;;;8.30;4.50;;;1.30;92.40;;;;;;5086066;28;20036;-74
2022/01/24 07:06:59;;;;;;;8.18;5.10;;;1.30;92.20;;;;;;5067456;28;20072;-74
2022/01/24 07:09:25;;;;;;;13.27;5.75;;;1.20;92.70;;;;;;5085497;28;20394;-74
2022/01/24 07:11:53;;;;;;;13.70;7.07;;;1.00;92.90;;;;;;5085969;28;20705;-74
2022/01/24 07:14:19;;;;;;;14.65;5.63;;;0.80;93.20;;;;;;5085187;28;20077;-74
2022/01/24 07:19:27;;;;;;;8.68;4.85;;;0.70;93.70;;;;;;5084679;28;20031;-73
2022/01/24 07:21:54;;;;;;;8.68;4.28;;;0.60;93.80;;;;;;5085734;28;20035;-74
2022/01/24 07:24:19;;;;;;;8.07;4.93;;;0.60;93.60;;;;;;5085998;28;20566;-73
2022/01/24 07:26:45;;;;;;;10.07;4.65;;;0.80;93.60;;;;;;5085558;28;20043;-73
2022/01/24 07:29:11;;;;;;;10.73;4.78;;;0.70;93.30;;;;;;5085016;28;20028;-74
2022/01/24 07:31:37;;;;;;;11.07;5.35;;;0.60;93.40;;;;;;5085468;28;21080;-74
2022/01/24 07:34:03;;;;;;;9.25;4.88;;;0.50;93.80;;;;;;5084941;28;20036;-74
2022/01/24 07:36:28;;;;;;;10.48;4.78;;;0.50;93.80;;;;;;5085221;28;20032;-74
2022/01/24 07:38:54;;;;;;;10.25;4.55;;;0.40;93.90;;;;;;5085130;28;20070;-73
2022/01/24 07:41:26;;;;;;;12.35;4.95;;;0.40;94.00;;;;;;5067011;28;20028;-74
2022/01/24 07:43:53;;;;;;;9.60;4.82;;;0.30;94.10;;;;;;5085142;28;20035;-74
2022/01/24 07:46:19;;;;;;;16.50;6.80;;;0.30;94.00;;;;;;5085271;28;20580;-73
2022/01/24 07:48:45;;;;;;;11.18;5.57;;;0.40;93.80;;;;;;5085182;28;20067;-74
2022/01/24 07:51:10;;;;;;;18.40;8.95;;;0.40;93.50;;;;;;5066781;28;20036;-73
2022/01/24 07:53:36;;;;;;;78.93;38.55;;;0.40;93.90;;;;;;5066599;28;20040;-74
2022/01/24 07:56:03;;;;;;;17.08;9.05;;;0.30;94.10;;;;;;5085048;28;20035;-73
2022/01/24 07:58:29;;;;;;;11.95;6.85;;;0.50;93.90;;;;;;5084749;28;20036;-74
2022/01/24 08:00:55;;;;;;;27.02;14.15;;;0.70;93.30;;;;;;5084628;28;20020;-73
2022/01/24 08:03:20;;;;;;;18.50;8.70;;;0.80;93.10;;;;;;5085198;28;20074;-74
2022/01/24 08:05:46;;;;;;;13.20;6.63;;;0.90;92.90;;;;;;5066440;28;20071;-74
2022/01/24 08:08:12;;;;;;;11.85;5.90;;;0.80;93.40;;;;;;5084896;28;20302;-74
2022/01/24 08:10:38;;;;;;;14.35;5.70;;;0.60;93.60;;;;;;5084271;28;20220;-74
2022/01/24 08:13:04;;;;;;;10.27;5.22;;;0.60;93.70;;;;;;5084620;28;20084;-74
2022/01/24 08:15:30;;;;;;;150.93;84.18;;;0.60;93.90;;;;;;5083994;28;20035;-74
2022/01/24 08:17:55;;;;;;;50.53;30.27;;;0.60;94.40;;;;;;5083032;28;20035;-74
2022/01/24 08:20:22;;;;;;;17.42;10.02;;;0.50;94.10;;;;;;5084031;28;20073;-74
2022/01/24 08:22:48;;;;;;;14.50;7.97;;;0.70;93.80;;;;;;5084295;28;20028;-74
2022/01/24 08:25:14;;;;;;;10.75;5.30;;;0.80;93.70;;;;;;5084056;28;20044;-74
2022/01/24 08:27:40;;;;;;;11.48;5.75;;;0.80;93.80;;;;;;5084001;28;20036;-74
2022/01/24 08:30:13;;;;;;;9.38;4.25;;;0.70;93.80;;;;;;5084095;28;20044;-74
2022/01/24 08:32:40;;;;;;;15.57;9.00;;;0.80;93.50;;;;;;5084170;28;20032;-74
2022/01/24 08:35:06;;;;;;;15.25;7.57;;;0.90;93.60;;;;;;5084463;28;20059;-74
2022/01/24 08:37:33;;;;;;;16.02;9.07;;;0.90;93.80;;;;;;5060160;28;20032;-74
2022/01/24 08:40:04;;;;;;;13.93;5.85;;;0.80;93.80;;;;;;5078739;28;20130;-74
2022/01/24 08:47:29;;;;;;;12.52;6.13;;;0.90;93.50;;;;;;5086928;28;20036;-74
2022/01/24 08:49:56;;;;;;;14.00;6.32;;;0.90;93.40;;;;;;5086992;28;20035;-74
2022/01/24 08:52:26;;;;;;;9.10;4.53;;;0.90;93.50;;;;;;5084825;28;20028;-74
2022/01/24 08:54:52;;;;;;;13.00;6.78;;;0.90;93.40;;;;;;5065803;28;20058;-74
2022/01/24 08:57:25;;;;;;;19.00;9.98;;;1.10;93.20;;;;;;5085385;28;20032;-74
2022/01/24 08:59:55;;;;;;;35.30;22.20;;;1.10;93.50;;;;;;5086177;28;20055;-74
2022/01/24 09:02:22;;;;;;;14.70;7.75;;;1.10;93.40;;;;;;5086310;28;20422;-74
2022/01/24 09:04:49;;;;;;;24.95;14.85;;;1.30;93.20;;;;;;5086826;28;20085;-74
2022/01/24 09:07:18;;;;;;;17.45;10.43;;;1.30;93.40;;;;;;5086050;28;20627;-74
2022/01/24 09:09:44;;;;;;;14.00;9.07;;;1.30;93.50;;;;;;5086944;28;20502;-74
2022/01/24 09:12:12;;;;;;;33.25;20.75;;;1.20;93.30;;;;;;5083844;28;20482;-74
2022/01/24 09:14:43;;;;;;;15.65;8.43;;;1.30;93.00;;;;;;5083731;28;20032;-74
2022/01/24 09:17:10;;;;;;;13.57;6.13;;;1.30;93.00;;;;;;5080906;28;20035;-74
2022/01/24 09:19:36;;;;;;;11.82;7.57;;;1.30;93.40;;;;;;5086638;28;20647;-74
2022/01/24 09:22:02;;;;;;;12.93;7.82;;;1.30;93.30;;;;;;5084582;28;20024;-74
2022/01/24 09:24:28;;;;;;;13.52;7.53;;;1.40;93.20;;;;;;5082066;28;20107;-74
2022/01/24 09:26:54;;;;;;;18.48;10.48;;;1.30;93.00;;;;;;5083151;28;20447;-74
2022/01/24 09:29:20;;;;;;;15.52;8.45;;;1.40;93.20;;;;;;5084773;28;20386;-74
2022/01/24 09:31:46;;;;;;;11.65;6.82;;;1.30;93.20;;;;;;5084463;28;20024;-74
2022/01/24 09:34:11;;;;;;;11.77;6.68;;;1.30;93.50;;;;;;5081849;28;20111;-73
2022/01/24 09:36:37;;;;;;;19.02;10.75;;;1.30;93.80;;;;;;5084472;28;20061;-74
2022/01/24 09:39:03;;;;;;;10.05;5.60;;;1.30;93.70;;;;;;5085573;28;20038;-74
2022/01/24 09:41:30;;;;;;;11.63;6.80;;;1.30;93.60;;;;;;5086357;28;20043;-74
2022/01/24 09:43:56;;;;;;;10.45;4.93;;;1.30;93.30;;;;;;5084056;28;20032;-74
2022/01/24 09:46:21;;;;;;;9.30;5.18;;;1.40;93.40;;;;;;5082168;28;20105;-74
2022/01/24 09:48:48;;;;;;;10.68;4.70;;;1.40;93.70;;;;;;5083205;28;20546;-74
2022/01/24 09:51:14;;;;;;;12.38;7.88;;;1.30;93.40;;;;;;5085526;28;20036;-74
2022/01/24 09:53:40;;;;;;;8.93;5.05;;;1.30;93.60;;;;;;5085319;28;20032;-74
2022/01/24 09:56:05;;;;;;;16.85;9.45;;;1.60;93.20;;;;;;5085321;28;20024;-74
2022/01/24 09:58:36;;;;;;;10.07;5.20;;;1.60;92.90;;;;;;5083764;28;20031;-74
2022/01/24 10:01:05;;;;;;;12.80;7.80;;;1.60;92.70;;;;;;5081946;28;20078;-74
2022/01/24 10:03:30;;;;;;;12.65;5.50;;;1.70;92.30;;;;;;5084390;28;20596;-74
2022/01/24 10:05:58;;;;;;;11.20;5.43;;;1.70;92.50;;;;;;5084949;28;20150;-74
2022/01/24 10:08:25;;;;;;;8.43;5.30;;;1.70;92.70;;;;;;5085125;28;20052;-74
2022/01/24 10:11:15;;;;;;;13.15;7.20;;;1.70;92.70;;;;;;5084608;28;20027;-74
2022/01/24 10:16:36;;;;;;;16.40;8.63;;;1.80;92.40;;;;;;5076242;28;20044;-74
2022/01/24 10:19:10;;;;;;;14.27;7.97;;;1.90;92.30;;;;;;5079759;28;20125;-74
2022/01/24 10:21:41;;;;;;;;;;;2.00;91.90;;;;;;5084646;28;20493;-74
2022/01/24 10:24:08;;;;;;;12.73;5.82;;;1.90;92.00;;;;;;5081541;28;19920;-74
2022/01/24 10:26:34;;;;;;;14.93;8.75;;;1.90;92.10;;;;;;5081982;28;20040;-74
2022/01/24 10:29:00;;;;;;;12.55;8.02;;;2.00;92.30;;;;;;5064397;28;20058;-74
2022/01/24 10:31:30;;;;;;;13.10;7.75;;;2.10;91.90;;;;;;5084916;28;20062;-74
2022/01/24 10:34:17;;;;;;;14.80;9.77;;;2.20;91.50;;;;;;5069706;28;20105;-74
2022/01/24 10:36:48;;;;;;;21.90;14.93;;;2.30;91.30;;;;;;5089375;28;20020;-74
2022/01/24 10:39:17;;;;;;;14.75;9.73;;;2.50;91.70;;;;;;5088872;28;20732;-74
2022/01/24 10:41:59;;;;;;;13.02;7.15;;;2.70;91.30;;;;;;5089103;28;20073;-74
2022/01/24 10:44:29;;;;;;;10.23;5.72;;;2.80;91.30;;;;;;5088603;28;20031;-74
2022/01/24 10:47:12;;;;;;;8.45;4.38;;;3.00;91.00;;;;;;5081288;28;20072;-74
2022/01/24 10:49:37;;;;;;;12.70;6.38;;;3.10;90.90;;;;;;5089123;28;20040;-74
2022/01/24 10:52:13;;;;;;;11.23;6.07;;;3.30;91.00;;;;;;5089249;28;20028;-74
2022/01/24 10:54:39;;;;;;;9.00;4.75;;;3.30;91.50;;;;;;5089054;28;20035;-74
2022/01/24 10:57:05;;;;;;;12.98;8.45;;;3.40;91.60;;;;;;5089096;28;20024;-74
2022/01/24 10:59:33;;;;;;;8.35;4.53;;;3.40;90.90;;;;;;5088248;28;20429;-74
2022/01/24 11:02:04;;;;;;;10.23;5.25;;;3.50;90.70;;;;;;5088988;28;20085;-74
2022/01/24 11:04:32;;;;;;;9.70;5.07;;;3.60;90.70;;;;;;5088578;28;20028;-74
2022/01/24 11:07:01;;;;;;;8.13;4.45;;;3.60;90.80;;;;;;5088813;28;20123;-74
2022/01/24 11:09:36;;;;;;;7.90;4.80;;;3.70;90.70;;;;;;5070480;28;20040;-74
2022/01/24 11:12:01;;;;;;;10.73;4.75;;;3.80;90.40;;;;;;5089122;28;20646;-74
2022/01/24 11:14:28;;;;;;;11.75;4.90;;;3.80;90.50;;;;;;5088273;28;20024;-74
2022/01/24 11:16:57;;;;;;;10.50;5.70;;;3.90;90.40;;;;;;5087311;28;20080;-74
2022/01/24 11:19:40;;;;;;;10.73;5.80;;;4.10;90.20;;;;;;5089750;28;20053;-74
2022/01/24 11:22:08;;;;;;;10.43;5.55;;;4.10;89.90;;;;;;5088421;28;20028;-74
2022/01/24 11:24:43;;;;;;;10.60;5.25;;;4.10;88.90;;;;;;5088207;28;20028;-74
2022/01/24 11:27:10;;;;;;;9.88;4.80;;;4.30;90.10;;;;;;5069869;28;20044;-74
2022/01/24 11:29:36;;;;;;;12.98;5.03;;;4.50;89.50;;;;;;5087857;28;20028;-74
2022/01/24 11:32:16;;;;;;;24.27;6.38;;;4.40;89.60;;;;;;5069171;28;20531;-73
2022/01/24 11:34:48;;;;;;;9.27;5.20;;;4.50;89.90;;;;;;5086589;28;20654;-74
2022/01/24 11:37:31;;;;;;;12.32;5.82;;;4.60;89.50;;;;;;5067846;28;20424;-74
2022/01/24 11:39:56;;;;;;;10.63;5.65;;;4.70;89.70;;;;;;5086994;28;20028;-74
2022/01/24 11:42:33;;;;;;;16.92;7.00;;;4.80;89.40;;;;;;5087078;28;20035;-74
2022/01/24 11:45:09;;;;;;;13.10;6.20;;;4.90;89.10;;;;;;5086456;28;20063;-74
2022/01/24 11:47:35;;;;;;;10.85;5.25;;;5.10;88.70;;;;;;5086352;28;20145;-74
2022/01/24 11:50:24;;;;;;;11.15;6.03;;;5.10;88.00;;;;;;5086424;28;20533;-74
2022/01/24 11:52:50;;;;;;;10.82;6.40;;;5.10;88.40;;;;;;5086105;28;20064;-74
2022/01/24 11:55:30;;;;;;;11.68;5.97;;;5.30;88.10;;;;;;5087142;28;20043;-74
2022/01/24 11:58:06;;;;;;;12.20;7.95;;;5.30;87.60;;;;;;5086669;28;20498;-74
2022/01/24 12:00:44;;;;;;;12.38;5.63;;;5.30;87.30;;;;;;5085639;28;20120;-74
2022/01/24 12:03:26;;;;;;;15.55;5.90;;;5.50;87.20;;;;;;5068185;28;20036;-74
2022/01/24 12:05:56;;;;;;;11.20;5.72;;;5.60;86.80;;;;;;5086477;28;20132;-74
2022/01/24 12:08:34;;;;;;;14.50;7.97;;;5.60;86.50;;;;;;5086252;28;20092;-74
2022/01/24 12:11:27;;;;;;;12.80;7.18;;;5.70;86.60;;;;;;5067786;28;20055;-74
2022/01/24 12:14:00;;;;;;;13.13;6.00;;;5.70;86.00;;;;;;5086446;28;20064;-74
2022/01/24 12:16:36;;;;;;;15.43;9.63;;;5.70;85.90;;;;;;5068458;28;20114;-74
2022/01/24 12:19:04;;;;;;;42.58;24.65;;;5.90;86.10;;;;;;5086096;28;20119;-74
2022/01/24 12:21:31;;;;;;;15.20;8.80;;;5.90;85.70;;;;;;5068135;28;20114;-74
2022/01/24 12:24:09;;;;;;;17.25;10.10;;;5.90;85.70;;;;;;5085649;28;20103;-74
2022/01/24 12:26:47;;;;;;;15.63;7.15;;;6.00;85.10;;;;;;5068235;28;20138;-74
2022/01/24 12:32:03;;;;;;;16.33;7.97;;;6.10;85.50;;;;;;5123684;27;20390;-74
2022/01/24 12:34:38;;;;;;;13.15;6.65;;;6.20;83.70;;;;;;5121946;28;20042;-74
2022/01/24 12:37:07;;;;;;;12.55;6.80;;;6.20;84.40;;;;;;5122256;28;20027;-75
2022/01/24 12:39:44;;;;;;;13.55;6.63;;;6.30;85.30;;;;;;5123125;27;20035;-73
2022/01/24 12:42:18;;;;;;;20.08;8.75;;;6.50;85.40;;;;;;5123075;27;20431;-73
2022/01/24 12:47:14;;;;;;;9.65;4.60;;;6.70;84.50;;;;;;5123102;27;20066;-73
2022/01/24 12:49:42;;;;;;;8.63;5.22;;;6.70;83.80;;;;;;5122998;27;20645;-73
2022/01/24 12:52:17;;;;;;;16.00;9.45;;;6.60;84.20;;;;;;5122423;28;20080;-72
2022/01/24 12:54:45;;;;;;;14.27;9.45;;;6.70;83.10;;;;;;5122219;28;20530;-73
2022/01/24 12:57:14;;;;;;;11.63;6.28;;;6.90;83.20;;;;;;5120196;27;20302;-73
2022/01/24 12:59:55;;;;;;;11.20;6.10;;;6.90;83.60;;;;;;5119741;28;20106;-73
2022/01/24 13:02:31;;;;;;;10.93;5.82;;;6.90;83.00;;;;;;5119776;28;20036;-73
2022/01/24 13:05:04;;;;;;;14.15;7.32;;;6.80;83.30;;;;;;5119624;27;20031;-73
2022/01/24 13:07:31;;;;;;;15.05;8.27;;;6.90;83.60;;;;;;5118988;27;20529;-73
2022/01/24 13:10:11;;;;;;;14.23;8.25;;;6.80;84.20;;;;;;5119351;28;20039;-73
2022/01/24 13:12:37;;;;;;;14.95;7.20;;;7.00;84.10;;;;;;5119477;27;20042;-73
2022/01/24 13:15:07;;;;;;;13.13;7.20;;;7.00;84.30;;;;;;5116381;28;20023;-73
2022/01/24 13:23:09;;;;;;;17.63;12.55;;;7.10;84.40;;;;;;5119252;28;20427;-73
2022/01/24 13:25:40;;;;;;;34.15;19.73;;;7.30;84.40;;;;;;5119510;28;20027;-73
2022/01/24 13:28:13;;;;;;;14.65;9.07;;;7.30;83.90;;;;;;5119580;28;20035;-73
2022/01/24 13:30:48;;;;;;;10.88;6.13;;;7.20;83.40;;;;;;5119164;28;20096;-73
2022/01/24 13:33:19;;;;;;;11.68;6.32;;;7.10;82.90;;;;;;5117669;28;20784;-73
2022/01/24 13:35:50;;;;;;;17.15;10.27;;;7.20;83.70;;;;;;5119545;27;20547;-73
2022/01/24 13:38:29;;;;;;;14.68;6.93;;;7.40;83.10;;;;;;5117901;28;20690;-73
2022/01/24 13:41:02;;;;;;;12.35;6.18;;;7.40;82.80;;;;;;5117981;28;20554;-73
2022/01/24 13:43:46;;;;;;;12.38;6.68;;;7.40;82.90;;;;;;5103086;28;20043;-73
2022/01/24 13:46:17;;;;;;;14.23;6.50;;;7.40;82.20;;;;;;5106476;28;20032;-74
2022/01/24 13:48:51;;;;;;;15.50;6.57;;;7.30;81.60;;;;;;5105893;28;20046;-73
2022/01/24 13:51:31;;;;;;;14.38;7.47;;;7.30;82.20;;;;;;5104191;28;20367;-73
2022/01/24 13:53:57;;;;;;;14.55;6.95;;;7.40;82.50;;;;;;5105463;28;20024;-73
2022/01/24 13:56:33;;;;;;;14.32;7.07;;;7.60;82.20;;;;;;5105533;28;20677;-73
2022/01/24 13:59:02;;;;;;;12.15;6.57;;;7.60;81.80;;;;;;5105246;28;20028;-73
2022/01/24 14:01:28;;;;;;;12.60;6.63;;;7.70;81.20;;;;;;5105459;28;20629;-73
2022/01/24 14:03:59;;;;;;;13.40;6.55;;;7.70;82.10;;;;;;5105081;28;20023;-73
2022/01/24 14:06:25;;;;;;;11.55;6.68;;;7.70;81.60;;;;;;5103677;28;20023;-73
2022/01/24 14:09:05;;;;;;;15.80;5.97;;;7.70;81.10;;;;;;5104688;28;20036;-73
2022/01/24 14:11:32;;;;;;;14.30;7.22;;;7.80;81.30;;;;;;5101364;28;20040;-73
2022/01/24 14:14:03;;;;;;;14.45;8.00;;;7.60;81.10;;;;;;5091424;28;20020;-73
2022/01/24 14:16:43;;;;;;;14.05;7.65;;;7.60;80.90;;;;;;5105125;28;20088;-73
2022/01/24 14:19:09;;;;;;;13.35;7.20;;;7.50;82.10;;;;;;5103733;28;20069;-73
2022/01/24 14:21:36;;;;;;;13.02;7.55;;;7.40;82.30;;;;;;5104144;28;20424;-73
2022/01/24 14:24:02;;;;;;;16.05;8.20;;;7.50;82.70;;;;;;5103380;28;20060;-73
2022/01/24 14:26:30;;;;;;;12.95;6.90;;;7.50;82.70;;;;;;5104377;28;20498;-73
2022/01/24 14:29:13;;;;;;;16.02;8.00;;;7.50;82.50;;;;;;5103543;28;20035;-74
2022/01/24 14:31:44;;;;;;;12.18;6.68;;;7.50;82.30;;;;;;5104918;28;20050;-73
2022/01/24 14:34:17;;;;;;;12.77;7.53;;;7.50;82.80;;;;;;5105116;28;20043;-73
2022/01/24 14:36:54;;;;;;;13.88;6.57;;;7.40;83.00;;;;;;5105063;28;20076;-73
2022/01/24 14:39:21;;;;;;;19.27;8.90;;;7.40;82.90;;;;;;5103700;28;20035;-73
2022/01/24 14:41:49;;;;;;;15.80;7.32;;;7.40;83.00;;;;;;5105261;28;20035;-71